Casville, North Carolina
Current Conditions -  °F | °C
As of 11:53 PM on Saturday 25 Oct 2014 (Local Time) from KDAN Reporting Station
Clear Clear  
Wind Chill: 13°   Ceiling: Unl
Heat Index: 13°   Visibility: 10mi
Dew Point:   Wind: 8mph
Humidity: 72%   Direction: 250°WSW
Pressure: 29.86"   Gusts: NA
Location:  36.4355°N, 79.5464°W
Report Text: KDAN 260353Z AUTO 25007KT 10SM CLR 13/08 A2986 RMK AO2 SLP103 T01280078
Loading
Personal Weather Stations






























Interactive Weather Map
Tropical Storm Tracking
New forecast layout! Learn more

10-Day Weather Forecast

Advertisements
Track Severe Weather on mobile